Terminal Aerodrome Forecast
Issued by NWS Paducah, KY

Home | Current Version | Previous Version | Text Only | Print | Product List | Glossary On
Versions: 1 2 3 4 5 6 7 8 9 10 11 12 13 14 15 16 17 18 19 20 21 22 23 24
000
FTUS43 KPAH 152300 RRA
TAFEVV
TAF
KEVV 152340Z 1600/1624 14008KT 5SM BR OVC015
      TEMPO 1600/1603 2SM -DZ BR OVC007
     FM160300 18007KT 2SM -DZ BR OVC005
     FM160600 23008G15KT P6SM OVC008
     FM160800 25010G17KT P6SM OVC012
     FM161500 26014G22KT P6SM OVC009=

USA.gov is the U.S. government's official web portal to all federal, state and local government web resources and services.